Time;durP1;ratioP1;P1;durP2;ratioP2;P2;SDS_P1;SDS_P2;PMS_P1;PMS_P2;Temp;Humidity;BMP_temperature;BMP_pressure;BME280_temperature;BME280_humidity;BME280_pressure;Samples;Min_cycle;Max_cycle;Signal;HPM_P1;HPM_P2
2022/07/26 00:01:46;;;;;;;6.97;1.77;;;;;;;;;;5018386;28;20107;-64
2022/07/26 00:04:14;;;;;;;9.40;1.98;;;;;;;;;;5012804;28;20492;-64
2022/07/26 00:06:41;;;;;;;7.18;2.35;;;;;;;;;;5019241;28;20061;-64
2022/07/26 00:09:09;;;;;;;7.90;2.13;;;;;;;;;;5021624;28;20779;-63
2022/07/26 00:11:37;;;;;;;7.50;1.92;;;;;;;;;;5018989;28;20054;-64
2022/07/26 00:14:05;;;;;;;7.22;1.90;;;;;;;;;;5005357;28;20057;-64
2022/07/26 00:16:32;;;;;;;10.10;2.00;;;;;;;;;;5018086;28;20064;-64
2022/07/26 00:18:59;;;;;;;13.88;2.53;;;;;;;;;;5001073;28;20120;-64
2022/07/26 00:21:26;;;;;;;8.10;1.85;;;;;;;;;;5017911;28;20046;-64
2022/07/26 00:23:53;;;;;;;7.32;2.00;;;;;;;;;;5021963;28;20061;-64
2022/07/26 00:26:22;;;;;;;8.32;1.80;;;;;;;;;;5023353;28;20100;-64
2022/07/26 00:28:49;;;;;;;8.98;2.10;;;;;;;;;;5018682;28;20783;-64
2022/07/26 00:31:16;;;;;;;10.35;2.17;;;;;;;;;;5014776;28;20054;-64
2022/07/26 00:33:44;;;;;;;8.48;1.90;;;;;;;;;;5022736;28;20060;-64
2022/07/26 00:36:11;;;;;;;8.75;1.75;;;;;;;;;;5002580;28;20053;-64
2022/07/26 00:38:39;;;;;;;7.35;1.70;;;;;;;;;;5017880;28;20721;-64
2022/07/26 00:41:06;;;;;;;11.80;2.33;;;;;;;;;;5020972;28;20113;-64
2022/07/26 00:43:35;;;;;;;10.18;2.38;;;;;;;;;;5020335;28;20068;-65
2022/07/26 00:46:02;;;;;;;7.03;1.83;;;;;;;;;;5021490;28;20050;-64
2022/07/26 00:48:29;;;;;;;10.30;2.28;;;;;;;;;;5019191;28;20042;-64
2022/07/26 00:50:57;;;;;;;8.48;1.95;;;;;;;;;;5021147;28;20127;-64
2022/07/26 00:53:24;;;;;;;11.32;2.25;;;;;;;;;;5019609;28;20148;-64
2022/07/26 00:55:52;;;;;;;7.63;1.70;;;;;;;;;;5023789;28;20508;-64
2022/07/26 00:58:19;;;;;;;7.63;1.70;;;;;;;;;;5017179;28;20473;-64
2022/07/26 01:00:48;;;;;;;8.15;2.28;;;;;;;;;;5022474;28;20056;-64
2022/07/26 01:03:15;;;;;;;9.75;1.90;;;;;;;;;;5023100;28;20384;-64
2022/07/26 01:05:43;;;;;;;6.57;1.83;;;;;;;;;;5017975;28;20119;-64
2022/07/26 01:08:10;;;;;;;10.70;2.20;;;;;;;;;;5020662;28;20046;-64
2022/07/26 01:10:38;;;;;;;7.28;1.90;;;;;;;;;;5018785;28;20053;-64
2022/07/26 01:13:06;;;;;;;10.43;2.25;;;;;;;;;;5021330;28;20504;-64
2022/07/26 01:15:33;;;;;;;11.65;2.15;;;;;;;;;;5020255;28;20057;-64
2022/07/26 01:18:01;;;;;;;7.57;2.20;;;;;;;;;;5020415;28;20045;-64
2022/07/26 01:20:29;;;;;;;10.27;2.38;;;;;;;;;;5021289;28;20107;-64
2022/07/26 01:22:57;;;;;;;8.82;2.33;;;;;;;;;;5025341;28;20220;-64
2022/07/26 01:25:31;;;;;;;6.38;2.10;;;;;;;;;;5016747;28;20049;-64
2022/07/26 01:27:58;;;;;;;7.43;2.22;;;;;;;;;;5005463;28;20057;-64
2022/07/26 01:30:26;;;;;;;8.57;1.70;;;;;;;;;;5021376;28;20504;-64
2022/07/26 01:32:53;;;;;;;8.32;1.98;;;;;;;;;;5025405;28;20508;-64
2022/07/26 01:35:20;;;;;;;9.82;2.42;;;;;;;;;;5025981;28;20053;-64
2022/07/26 01:37:47;;;;;;;10.07;2.40;;;;;;;;;;5022317;28;20049;-63
2022/07/26 01:40:16;;;;;;;9.68;2.05;;;;;;;;;;5023351;28;20057;-64
2022/07/26 01:42:43;;;;;;;14.25;2.28;;;;;;;;;;5017403;28;20076;-64
2022/07/26 01:45:11;;;;;;;8.65;1.88;;;;;;;;;;5022601;28;20057;-64
2022/07/26 01:47:38;;;;;;;13.25;2.08;;;;;;;;;;5019199;28;21211;-64
2022/07/26 01:50:07;;;;;;;8.80;1.95;;;;;;;;;;5023657;28;20110;-63
2022/07/26 01:52:34;;;;;;;10.93;2.28;;;;;;;;;;5023118;28;20057;-64
2022/07/26 01:55:01;;;;;;;8.40;1.60;;;;;;;;;;5021573;28;20412;-64
2022/07/26 01:57:30;;;;;;;6.95;1.50;;;;;;;;;;5019776;28;20046;-64
2022/07/26 01:59:57;;;;;;;9.93;1.90;;;;;;;;;;5021017;28;20042;-64
2022/07/26 02:02:25;;;;;;;9.25;1.67;;;;;;;;;;5026690;28;20057;-64
2022/07/26 02:04:58;;;;;;;6.13;1.13;;;;;;;;;;5020533;28;20068;-64
2022/07/26 02:07:25;;;;;;;10.20;1.55;;;;;;;;;;5022983;28;20057;-64
2022/07/26 02:09:52;;;;;;;11.07;1.83;;;;;;;;;;5021095;28;20512;-64
2022/07/26 02:12:19;;;;;;;10.15;1.60;;;;;;;;;;5020771;28;20049;-63
2022/07/26 02:14:48;;;;;;;9.55;1.77;;;;;;;;;;5018849;28;20253;-63
2022/07/26 02:17:16;;;;;;;7.95;1.48;;;;;;;;;;5021404;28;20049;-64
2022/07/26 02:19:43;;;;;;;5.85;1.40;;;;;;;;;;5025014;28;20049;-64
2022/07/26 02:22:10;;;;;;;8.07;1.33;;;;;;;;;;5022198;28;20054;-64
2022/07/26 02:24:38;;;;;;;6.32;1.50;;;;;;;;;;5018093;28;20045;-63
2022/07/26 02:27:05;;;;;;;11.60;1.75;;;;;;;;;;5022788;28;20053;-64
2022/07/26 02:29:33;;;;;;;9.48;1.77;;;;;;;;;;5022513;28;20557;-64
2022/07/26 02:32:01;;;;;;;8.32;1.40;;;;;;;;;;5003590;28;20061;-64
2022/07/26 02:34:29;;;;;;;8.30;1.48;;;;;;;;;;5003491;28;20057;-63
2022/07/26 02:36:56;;;;;;;9.43;1.40;;;;;;;;;;5021274;28;20061;-64
2022/07/26 02:39:26;;;;;;;9.63;1.52;;;;;;;;;;5014220;28;20100;-63
2022/07/26 02:41:54;;;;;;;11.82;1.58;;;;;;;;;;5020159;28;20057;-64
2022/07/26 02:44:22;;;;;;;9.13;1.40;;;;;;;;;;5021598;28;20053;-64
2022/07/26 02:46:49;;;;;;;8.93;1.30;;;;;;;;;;5022274;28;20054;-64
2022/07/26 02:49:18;;;;;;;7.03;1.42;;;;;;;;;;5019062;28;20103;-64
2022/07/26 02:51:45;;;;;;;7.97;1.38;;;;;;;;;;5020596;28;20049;-64
2022/07/26 02:54:13;;;;;;;12.57;1.63;;;;;;;;;;5024350;28;20045;-63
2022/07/26 02:56:40;;;;;;;11.50;1.58;;;;;;;;;;5004048;28;20057;-64
2022/07/26 02:59:07;;;;;;;9.05;1.50;;;;;;;;;;5023578;28;20058;-64
2022/07/26 03:01:35;;;;;;;9.90;1.33;;;;;;;;;;5018101;28;20088;-63
2022/07/26 03:04:02;;;;;;;6.00;1.10;;;;;;;;;;5021950;28;20077;-64
2022/07/26 03:06:31;;;;;;;8.02;1.35;;;;;;;;;;5006997;28;20049;-63
2022/07/26 03:08:58;;;;;;;12.45;1.50;;;;;;;;;;5021394;28;20779;-64
2022/07/26 03:11:25;;;;;;;6.50;1.10;;;;;;;;;;5025665;28;20127;-64
2022/07/26 03:13:52;;;;;;;9.25;1.02;;;;;;;;;;5023876;28;20092;-63
2022/07/26 03:16:19;;;;;;;9.00;1.45;;;;;;;;;;5022708;28;20041;-64
2022/07/26 03:18:47;;;;;;;6.72;1.30;;;;;;;;;;5020438;28;20046;-64
2022/07/26 03:21:14;;;;;;;10.25;1.60;;;;;;;;;;5020591;28;20160;-64
2022/07/26 03:23:42;;;;;;;7.60;1.35;;;;;;;;;;5019828;28;20484;-64
2022/07/26 03:26:10;;;;;;;7.03;1.30;;;;;;;;;;5007812;28;20504;-64
2022/07/26 03:28:38;;;;;;;10.65;1.58;;;;;;;;;;5019915;28;20041;-64
2022/07/26 03:31:05;;;;;;;7.43;1.17;;;;;;;;;;5018167;28;20054;-63
2022/07/26 03:33:33;;;;;;;6.85;1.30;;;;;;;;;;5024036;28;20119;-64
2022/07/26 03:36:00;;;;;;;6.28;1.40;;;;;;;;;;5020602;28;20053;-64
2022/07/26 03:38:27;;;;;;;9.48;1.80;;;;;;;;;;5017299;28;20483;-64
2022/07/26 03:40:56;;;;;;;10.88;1.45;;;;;;;;;;5022542;28;20053;-64
2022/07/26 03:43:23;;;;;;;7.32;1.02;;;;;;;;;;5018848;28;20045;-64
2022/07/26 03:45:50;;;;;;;6.18;1.00;;;;;;;;;;5004798;28;20111;-64
2022/07/26 03:48:17;;;;;;;5.05;1.23;;;;;;;;;;5021802;28;20056;-64
2022/07/26 03:50:44;;;;;;;6.75;0.80;;;;;;;;;;5022042;28;20127;-64
2022/07/26 03:53:27;;;;;;;6.63;1.20;;;;;;;;;;4968378;28;20045;-64
2022/07/26 03:58:40;;;;;;;5.93;1.30;;;;;;;;;;5021609;28;20060;-64
2022/07/26 04:01:07;;;;;;;6.32;1.13;;;;;;;;;;5025139;28;20053;-64
2022/07/26 04:03:35;;;;;;;8.18;1.23;;;;;;;;;;5020661;28;20852;-64
2022/07/26 04:06:02;;;;;;;6.70;1.13;;;;;;;;;;4999699;28;20051;-64
2022/07/26 04:08:29;;;;;;;11.45;1.50;;;;;;;;;;4999706;28;20065;-64
2022/07/26 04:10:58;;;;;;;6.03;1.15;;;;;;;;;;5007473;28;20057;-64
2022/07/26 04:13:25;;;;;;;10.90;1.70;;;;;;;;;;5022913;28;20058;-63
2022/07/26 04:15:52;;;;;;;8.55;1.27;;;;;;;;;;5016818;28;20084;-64
2022/07/26 04:18:20;;;;;;;8.07;1.45;;;;;;;;;;5019654;28;20128;-64
2022/07/26 04:20:47;;;;;;;8.00;1.30;;;;;;;;;;4997534;28;20045;-64
2022/07/26 04:23:14;;;;;;;8.25;1.20;;;;;;;;;;5021780;28;20049;-64
2022/07/26 04:25:41;;;;;;;5.93;1.13;;;;;;;;;;5015026;28;20893;-63
2022/07/26 04:28:10;;;;;;;3.50;0.90;;;;;;;;;;5009591;28;20050;-64
2022/07/26 04:30:37;;;;;;;2.92;0.70;;;;;;;;;;5002451;28;20045;-65
2022/07/26 04:33:05;;;;;;;4.07;0.70;;;;;;;;;;5024604;28;20065;-64
2022/07/26 04:35:32;;;;;;;3.80;0.80;;;;;;;;;;5020005;28;20046;-64
2022/07/26 04:38:00;;;;;;;7.32;1.20;;;;;;;;;;5015244;28;20057;-64
2022/07/26 04:40:32;;;;;;;5.20;0.85;;;;;;;;;;5004747;28;20128;-63
2022/07/26 04:42:59;;;;;;;7.95;1.05;;;;;;;;;;5020643;28;20484;-64
2022/07/26 04:45:28;;;;;;;5.95;1.15;;;;;;;;;;5021123;28;20452;-64
2022/07/26 04:47:55;;;;;;;4.25;0.80;;;;;;;;;;4996805;28;20551;-64
2022/07/26 04:50:23;;;;;;;4.75;1.08;;;;;;;;;;5016973;28;20054;-64
2022/07/26 04:52:51;;;;;;;5.32;0.98;;;;;;;;;;5023532;28;20519;-64
2022/07/26 04:55:19;;;;;;;4.28;0.90;;;;;;;;;;5020941;28;20115;-64
2022/07/26 04:57:46;;;;;;;7.25;1.00;;;;;;;;;;5023779;28;20045;-64
2022/07/26 05:00:15;;;;;;;11.10;1.50;;;;;;;;;;5021297;28;20041;-63
2022/07/26 05:02:44;;;;;;;8.00;1.35;;;;;;;;;;5022308;28;20147;-64
2022/07/26 05:05:11;;;;;;;6.82;1.00;;;;;;;;;;5020088;28;20045;-64
2022/07/26 05:07:42;;;;;;;4.70;0.90;;;;;;;;;;5021801;28;20053;-64
2022/07/26 05:10:10;;;;;;;4.05;1.10;;;;;;;;;;5003365;28;20050;-64
2022/07/26 05:12:37;;;;;;;8.45;1.05;;;;;;;;;;5011656;28;20049;-64
2022/07/26 05:15:05;;;;;;;5.05;0.93;;;;;;;;;;5017228;28;20050;-64
2022/07/26 05:17:32;;;;;;;4.20;1.08;;;;;;;;;;5013468;28;20049;-64
2022/07/26 05:20:01;;;;;;;6.80;0.90;;;;;;;;;;5013939;28;20052;-64
2022/07/26 05:22:28;;;;;;;6.05;0.90;;;;;;;;;;5016831;28;20059;-64
2022/07/26 05:24:55;;;;;;;8.25;1.25;;;;;;;;;;5018639;28;20708;-64
2022/07/26 05:27:22;;;;;;;6.70;1.10;;;;;;;;;;5018458;28;20069;-64
2022/07/26 05:29:49;;;;;;;7.07;0.90;;;;;;;;;;5006148;28;20111;-64
2022/07/26 05:32:17;;;;;;;5.75;1.10;;;;;;;;;;5020360;28;20077;-63
2022/07/26 05:34:44;;;;;;;8.95;1.23;;;;;;;;;;5021647;28;20060;-64
2022/07/26 05:37:13;;;;;;;4.05;1.25;;;;;;;;;;5023663;28;20057;-64
2022/07/26 05:39:40;;;;;;;8.73;1.77;;;;;;;;;;5021922;28;20046;-64
2022/07/26 05:42:07;;;;;;;9.40;1.58;;;;;;;;;;5018317;28;20129;-64
2022/07/26 05:44:34;;;;;;;11.82;2.08;;;;;;;;;;5014325;28;20050;-64
2022/07/26 05:47:02;;;;;;;11.35;2.50;;;;;;;;;;5014426;28;20046;-64
2022/07/26 05:49:30;;;;;;;12.45;2.05;;;;;;;;;;5025991;28;20500;-64
2022/07/26 05:51:57;;;;;;;9.15;1.55;;;;;;;;;;5004781;28;20068;-64
2022/07/26 05:54:25;;;;;;;8.27;1.50;;;;;;;;;;5023765;28;20065;-64
2022/07/26 05:56:53;;;;;;;14.55;1.48;;;;;;;;;;5022023;28;20071;-64
2022/07/26 05:59:20;;;;;;;8.13;1.17;;;;;;;;;;5022816;28;20124;-64
2022/07/26 06:01:47;;;;;;;5.70;1.20;;;;;;;;;;5021458;28;20053;-64
2022/07/26 06:04:14;;;;;;;9.80;1.77;;;;;;;;;;4999303;28;20054;-64
2022/07/26 06:06:41;;;;;;;8.10;1.40;;;;;;;;;;5021932;28;20053;-64
2022/07/26 06:09:09;;;;;;;5.78;1.17;;;;;;;;;;5023432;28;20412;-64
2022/07/26 06:11:37;;;;;;;5.65;1.25;;;;;;;;;;5020390;28;20061;-64
2022/07/26 06:14:04;;;;;;;5.22;0.80;;;;;;;;;;5015130;28;20592;-64
2022/07/26 06:16:31;;;;;;;3.67;0.90;;;;;;;;;;5022231;28;20049;-65
2022/07/26 06:18:59;;;;;;;6.40;1.08;;;;;;;;;;5018449;28;20555;-64
2022/07/26 06:21:26;;;;;;;3.97;1.25;;;;;;;;;;5025818;28;20099;-64
2022/07/26 06:23:53;;;;;;;3.85;0.77;;;;;;;;;;5024181;28;20128;-64
2022/07/26 06:26:22;;;;;;;5.05;1.27;;;;;;;;;;5023943;28;20045;-64
2022/07/26 06:28:51;;;;;;;6.07;0.80;;;;;;;;;;5026663;28;20111;-64
2022/07/26 06:31:18;;;;;;;7.80;1.40;;;;;;;;;;5024913;28;20095;-64
2022/07/26 06:33:45;;;;;;;6.75;1.48;;;;;;;;;;5025921;28;20045;-65
2022/07/26 06:36:13;;;;;;;7.63;1.40;;;;;;;;;;5022073;28;20045;-65
2022/07/26 06:38:40;;;;;;;6.20;1.20;;;;;;;;;;5026233;28;20053;-64
2022/07/26 06:41:07;;;;;;;10.00;1.67;;;;;;;;;;5020958;28;20053;-64
2022/07/26 06:43:34;;;;;;;7.80;1.42;;;;;;;;;;5025292;28;20059;-64
2022/07/26 06:46:03;;;;;;;12.35;1.63;;;;;;;;;;5016839;28;20057;-64
2022/07/26 06:48:30;;;;;;;9.45;1.73;;;;;;;;;;5021409;28;20615;-64
2022/07/26 06:50:57;;;;;;;6.53;1.40;;;;;;;;;;4993582;28;20062;-64
2022/07/26 06:53:25;;;;;;;9.38;1.35;;;;;;;;;;5003827;28;20053;-64
2022/07/26 06:55:52;;;;;;;5.95;1.13;;;;;;;;;;5005104;28;20053;-64
2022/07/26 06:58:19;;;;;;;5.65;1.38;;;;;;;;;;5003140;28;20140;-64
2022/07/26 07:00:46;;;;;;;6.57;1.20;;;;;;;;;;5005771;28;20046;-64
2022/07/26 07:03:15;;;;;;;9.93;1.65;;;;;;;;;;5006351;28;20041;-64
2022/07/26 07:05:42;;;;;;;5.55;1.00;;;;;;;;;;5006356;28;20492;-65
2022/07/26 07:08:09;;;;;;;4.80;1.35;;;;;;;;;;5007101;28;20058;-64
2022/07/26 07:10:36;;;;;;;6.97;1.30;;;;;;;;;;4989155;28;20654;-64
2022/07/26 07:13:04;;;;;;;8.73;1.38;;;;;;;;;;5006744;28;20042;-65
2022/07/26 07:15:31;;;;;;;6.90;1.35;;;;;;;;;;5012792;28;20045;-64
2022/07/26 07:17:58;;;;;;;8.27;1.85;;;;;;;;;;5007133;28;20050;-64
2022/07/26 07:20:27;;;;;;;7.68;1.73;;;;;;;;;;5006727;28;20108;-65
2022/07/26 07:22:54;;;;;;;9.63;2.10;;;;;;;;;;5006319;28;20103;-64
2022/07/26 07:25:21;;;;;;;11.27;1.85;;;;;;;;;;4989080;28;20058;-64
2022/07/26 07:27:49;;;;;;;7.35;1.95;;;;;;;;;;4996153;28;20519;-64
2022/07/26 07:30:16;;;;;;;10.27;2.17;;;;;;;;;;4988041;28;20050;-64
2022/07/26 07:32:43;;;;;;;10.30;1.90;;;;;;;;;;5005595;28;20404;-64
2022/07/26 07:35:10;;;;;;;9.95;2.10;;;;;;;;;;5002718;28;20060;-64
2022/07/26 07:37:39;;;;;;;10.90;2.20;;;;;;;;;;4988708;28;20069;-64
2022/07/26 07:40:07;;;;;;;9.43;1.98;;;;;;;;;;4987837;28;20092;-64
2022/07/26 07:42:34;;;;;;;10.23;1.90;;;;;;;;;;5004518;28;20523;-64
2022/07/26 07:45:01;;;;;;;11.23;2.00;;;;;;;;;;5006427;28;20460;-64
2022/07/26 07:47:28;;;;;;;9.32;2.00;;;;;;;;;;5003730;28;20057;-64
2022/07/26 07:49:55;;;;;;;8.73;1.90;;;;;;;;;;5004882;28;20080;-64
2022/07/26 07:52:23;;;;;;;9.25;1.70;;;;;;;;;;5019657;28;20046;-64
2022/07/26 07:54:51;;;;;;;8.90;1.63;;;;;;;;;;5018449;28;20584;-65
2022/07/26 07:57:19;;;;;;;8.50;2.13;;;;;;;;;;5019462;28;20096;-64
2022/07/26 07:59:46;;;;;;;14.27;2.28;;;;;;;;;;5013445;28;20081;-64
2022/07/26 08:02:14;;;;;;;12.13;2.67;;;;;;;;;;5024081;28;20050;-65
2022/07/26 08:04:41;;;;;;;13.70;2.50;;;;;;;;;;5017850;28;20049;-64
2022/07/26 08:07:09;;;;;;;11.60;2.72;;;;;;;;;;5022281;28;20057;-64
2022/07/26 08:09:36;;;;;;;16.40;2.60;;;;;;;;;;5019172;28;20057;-64
2022/07/26 08:12:05;;;;;;;16.33;3.30;;;;;;;;;;5014257;28;20497;-64
2022/07/26 08:14:32;;;;;;;14.23;3.10;;;;;;;;;;5014652;28;20071;-64
2022/07/26 08:16:59;;;;;;;14.32;3.00;;;;;;;;;;5017915;28;20053;-64
2022/07/26 08:19:26;;;;;;;20.85;2.90;;;;;;;;;;5024061;28;20560;-64
2022/07/26 08:21:53;;;;;;;14.68;2.92;;;;;;;;;;5014587;28;20046;-64
2022/07/26 08:24:21;;;;;;;20.80;3.33;;;;;;;;;;5021166;28;20049;-64
2022/07/26 08:26:50;;;;;;;14.13;2.90;;;;;;;;;;5017739;28;20046;-64
2022/07/26 08:29:18;;;;;;;18.25;3.08;;;;;;;;;;5015020;28;20050;-65
2022/07/26 08:31:46;;;;;;;18.42;2.80;;;;;;;;;;5010922;28;20057;-64
2022/07/26 08:34:13;;;;;;;21.77;3.10;;;;;;;;;;5023213;28;20053;-65
2022/07/26 08:36:40;;;;;;;17.65;3.17;;;;;;;;;;5018047;28;20057;-64
2022/07/26 08:39:08;;;;;;;18.83;2.80;;;;;;;;;;5013707;28;20045;-64
2022/07/26 08:41:39;;;;;;;18.40;3.30;;;;;;;;;;5018022;28;20166;-64
2022/07/26 08:44:07;;;;;;;16.95;3.47;;;;;;;;;;4997918;28;20140;-64
2022/07/26 08:46:36;;;;;;;14.82;2.45;;;;;;;;;;5018057;28;20038;-64
2022/07/26 08:49:04;;;;;;;16.20;3.00;;;;;;;;;;5010242;28;20069;-64
2022/07/26 08:51:31;;;;;;;9.38;2.33;;;;;;;;;;5014789;28;20192;-64
2022/07/26 08:53:59;;;;;;;11.48;2.72;;;;;;;;;;5019150;28;20076;-64
2022/07/26 08:56:26;;;;;;;15.23;2.40;;;;;;;;;;5023272;28;20045;-64
2022/07/26 08:58:54;;;;;;;13.70;2.72;;;;;;;;;;5024784;28;20050;-64
2022/07/26 09:01:21;;;;;;;11.13;2.05;;;;;;;;;;5020660;28;20420;-64
2022/07/26 09:03:50;;;;;;;11.95;2.38;;;;;;;;;;5001793;28;20057;-64
2022/07/26 09:06:17;;;;;;;9.45;2.10;;;;;;;;;;5015525;28;20061;-64
2022/07/26 09:08:45;;;;;;;11.43;2.13;;;;;;;;;;5020818;28;20095;-64
2022/07/26 09:11:31;;;;;;;10.18;1.95;;;;;;;;;;5023945;28;20103;-65
2022/07/26 09:14:00;;;;;;;10.80;2.10;;;;;;;;;;5020279;28;20054;-64
2022/07/26 09:16:27;;;;;;;9.55;2.22;;;;;;;;;;5024681;28;20056;-64
2022/07/26 09:18:56;;;;;;;13.32;1.85;;;;;;;;;;5025653;28;20053;-64
2022/07/26 09:21:27;;;;;;;9.52;2.13;;;;;;;;;;5023035;28;20107;-65
2022/07/26 09:23:54;;;;;;;8.82;1.90;;;;;;;;;;5021525;28;20403;-64
2022/07/26 09:26:22;;;;;;;9.40;1.80;;;;;;;;;;5004363;28;20099;-64
2022/07/26 09:29:01;;;;;;;14.02;2.08;;;;;;;;;;5023950;28;20469;-65
2022/07/26 09:31:29;;;;;;;10.77;1.92;;;;;;;;;;5021050;28;20425;-64
2022/07/26 09:33:58;;;;;;;8.65;1.80;;;;;;;;;;5029505;28;20054;-64
2022/07/26 09:36:26;;;;;;;8.20;1.88;;;;;;;;;;5027038;28;20416;-64
2022/07/26 09:38:54;;;;;;;10.65;1.95;;;;;;;;;;4999223;28;20060;-64
2022/07/26 09:41:22;;;;;;;14.63;2.00;;;;;;;;;;5012203;28;20065;-65
2022/07/26 09:43:50;;;;;;;6.95;1.67;;;;;;;;;;5026418;28;20462;-64
2022/07/26 09:46:18;;;;;;;9.18;1.85;;;;;;;;;;5019189;28;20088;-64
2022/07/26 09:48:45;;;;;;;11.23;2.28;;;;;;;;;;5024264;28;20485;-64
2022/07/26 09:51:14;;;;;;;7.25;1.50;;;;;;;;;;5006065;28;20053;-64
2022/07/26 09:53:42;;;;;;;7.20;1.80;;;;;;;;;;5028444;28;20053;-65
2022/07/26 09:56:09;;;;;;;9.73;1.52;;;;;;;;;;5024960;28;20042;-64
2022/07/26 09:58:36;;;;;;;7.72;1.70;;;;;;;;;;5009699;28;20057;-64
2022/07/26 10:01:04;;;;;;;6.43;1.55;;;;;;;;;;5024653;28;20045;-65
2022/07/26 10:03:31;;;;;;;11.63;1.48;;;;;;;;;;5017755;28;20056;-64
2022/07/26 10:05:58;;;;;;;9.27;1.70;;;;;;;;;;5026637;28;20073;-65
2022/07/26 10:08:27;;;;;;;9.32;1.73;;;;;;;;;;5024281;28;20049;-64
2022/07/26 10:10:57;;;;;;;8.02;1.60;;;;;;;;;;5017450;28;20053;-64
2022/07/26 10:13:27;;;;;;;7.07;1.80;;;;;;;;;;5021972;28;20397;-65
2022/07/26 10:15:55;;;;;;;8.40;1.63;;;;;;;;;;5026925;28;20053;-64
2022/07/26 10:18:41;;;;;;;7.78;1.73;;;;;;;;;;5024381;28;20056;-64
2022/07/26 10:21:18;;;;;;;6.50;1.77;;;;;;;;;;5021616;28;20591;-64
2022/07/26 10:23:47;;;;;;;6.40;1.70;;;;;;;;;;5025924;28;20857;-64
2022/07/26 10:26:29;;;;;;;6.90;1.42;;;;;;;;;;5024268;28;20045;-64
2022/07/26 10:28:56;;;;;;;7.68;1.38;;;;;;;;;;5013585;28;20076;-65
2022/07/26 10:31:30;;;;;;;7.93;1.40;;;;;;;;;;5019554;28;20112;-64
2022/07/26 10:33:59;;;;;;;5.10;1.30;;;;;;;;;;5002076;28;20062;-64
2022/07/26 10:36:27;;;;;;;6.53;1.70;;;;;;;;;;5018974;28;20112;-64
2022/07/26 10:39:15;;;;;;;6.40;1.52;;;;;;;;;;5020469;28;20404;-64
2022/07/26 10:41:46;;;;;;;7.15;1.83;;;;;;;;;;5015425;28;20469;-64
2022/07/26 10:44:17;;;;;;;6.05;1.70;;;;;;;;;;5027576;28;20060;-64
2022/07/26 10:47:01;;;;;;;6.40;1.58;;;;;;;;;;5020172;28;20045;-64
2022/07/26 10:49:30;;;;;;;7.80;1.90;;;;;;;;;;5023508;28;20495;-64
2022/07/26 10:52:07;;;;;;;10.20;1.50;;;;;;;;;;5024758;28;20116;-64
2022/07/26 10:55:05;;;;;;;13.85;1.85;;;;;;;;;;5019037;28;20236;-64
2022/07/26 10:57:34;;;;;;;9.50;1.52;;;;;;;;;;5015371;28;20060;-64
2022/07/26 11:00:02;;;;;;;8.45;1.50;;;;;;;;;;5016853;28;20054;-65
2022/07/26 11:02:31;;;;;;;10.48;1.92;;;;;;;;;;5000051;28;20047;-64
2022/07/26 11:05:00;;;;;;;6.30;1.70;;;;;;;;;;5013527;28;20128;-64
2022/07/26 11:07:27;;;;;;;10.10;1.98;;;;;;;;;;5007487;28;20479;-64
2022/07/26 11:09:55;;;;;;;5.63;1.55;;;;;;;;;;5019672;28;20061;-64
2022/07/26 11:12:22;;;;;;;7.30;1.52;;;;;;;;;;5004353;28;20112;-64
2022/07/26 11:14:53;;;;;;;8.15;1.77;;;;;;;;;;5026617;28;20054;-64
2022/07/26 11:17:24;;;;;;;9.43;1.45;;;;;;;;;;5018828;28;20048;-64
2022/07/26 11:19:51;;;;;;;8.70;1.80;;;;;;;;;;5020019;28;20080;-65
2022/07/26 11:22:18;;;;;;;6.97;1.42;;;;;;;;;;5021410;28;20136;-64
2022/07/26 11:24:46;;;;;;;7.38;1.50;;;;;;;;;;5013675;28;20072;-64
2022/07/26 11:27:13;;;;;;;9.23;1.33;;;;;;;;;;5018090;28;20413;-64
2022/07/26 11:29:40;;;;;;;8.77;1.30;;;;;;;;;;5014701;28;20548;-64
2022/07/26 11:32:17;;;;;;;9.98;1.60;;;;;;;;;;5022128;28;20057;-64
2022/07/26 11:34:44;;;;;;;5.35;1.35;;;;;;;;;;5022781;28;20771;-65
2022/07/26 11:37:12;;;;;;;10.75;2.05;;;;;;;;;;5023598;28;20440;-64
2022/07/26 11:39:39;;;;;;;5.95;1.33;;;;;;;;;;5020882;28;20045;-64
2022/07/26 11:42:07;;;;;;;10.00;1.52;;;;;;;;;;5018160;28;20054;-64
2022/07/26 11:44:34;;;;;;;6.82;1.60;;;;;;;;;;5018957;28;20053;-64
2022/07/26 11:47:10;;;;;;;8.30;1.65;;;;;;;;;;5020395;28;20057;-64
2022/07/26 11:49:39;;;;;;;7.20;1.35;;;;;;;;;;5022701;28;20111;-64
2022/07/26 11:52:06;;;;;;;10.00;1.70;;;;;;;;;;5018051;28;20049;-64
2022/07/26 11:54:34;;;;;;;6.25;1.27;;;;;;;;;;5022478;28;20041;-65
2022/07/26 11:57:03;;;;;;;8.20;1.30;;;;;;;;;;5005606;28;20815;-64
2022/07/26 11:59:31;;;;;;;7.18;1.40;;;;;;;;;;5022742;28;20583;-65
2022/07/26 12:01:59;;;;;;;7.97;1.67;;;;;;;;;;5023544;28;20069;-65
2022/07/26 12:04:28;;;;;;;4.88;1.50;;;;;;;;;;5024834;28;20041;-65
2022/07/26 12:06:57;;;;;;;6.82;1.40;;;;;;;;;;5022639;28;20492;-65
2022/07/26 12:09:28;;;;;;;5.43;1.48;;;;;;;;;;5018559;28;20046;-64
2022/07/26 12:11:55;;;;;;;5.82;1.50;;;;;;;;;;5023176;28;20041;-65
2022/07/26 12:14:26;;;;;;;9.65;1.70;;;;;;;;;;5007620;28;20053;-65
2022/07/26 12:16:53;;;;;;;5.15;1.50;;;;;;;;;;5020049;28;20104;-66
2022/07/26 12:19:25;;;;;;;5.50;1.58;;;;;;;;;;5016652;28;20049;-65
2022/07/26 12:21:53;;;;;;;8.20;1.90;;;;;;;;;;5021601;28;20504;-65
2022/07/26 12:24:50;;;;;;;11.32;1.80;;;;;;;;;;5020157;28;20053;-65
2022/07/26 12:27:19;;;;;;;6.03;1.35;;;;;;;;;;4926771;29;20074;-65
2022/07/26 12:29:47;;;;;;;6.10;1.52;;;;;;;;;;4998485;28;20049;-64
2022/07/26 12:32:16;;;;;;;6.35;1.50;;;;;;;;;;5015574;28;20053;-65
2022/07/26 12:34:55;;;;;;;6.55;1.50;;;;;;;;;;5004456;28;20054;-65
2022/07/26 12:37:23;;;;;;;8.07;1.40;;;;;;;;;;5020367;28;20064;-64
2022/07/26 12:40:00;;;;;;;4.95;1.38;;;;;;;;;;5001149;28;20060;-64
2022/07/26 12:42:30;;;;;;;6.97;1.40;;;;;;;;;;5010637;28;20053;-65
2022/07/26 12:44:57;;;;;;;7.00;1.20;;;;;;;;;;5019223;28;20456;-65
2022/07/26 12:47:25;;;;;;;6.45;1.52;;;;;;;;;;5019097;28;20049;-65
2022/07/26 12:49:53;;;;;;;5.00;1.23;;;;;;;;;;5024079;28;20065;-65
2022/07/26 12:52:21;;;;;;;5.80;1.60;;;;;;;;;;5028467;28;20045;-65
2022/07/26 12:54:48;;;;;;;3.58;1.13;;;;;;;;;;5023285;28;20606;-65
2022/07/26 12:57:16;;;;;;;6.72;1.30;;;;;;;;;;5014679;28;20146;-64
2022/07/26 12:59:45;;;;;;;4.72;1.30;;;;;;;;;;5019953;28;20781;-64
2022/07/26 13:02:13;;;;;;;5.18;1.40;;;;;;;;;;5025719;28;20072;-64
2022/07/26 13:04:40;;;;;;;4.90;1.48;;;;;;;;;;5021932;28;20050;-64
2022/07/26 13:07:07;;;;;;;6.25;1.60;;;;;;;;;;5025046;28;20212;-65
2022/07/26 13:09:35;;;;;;;6.50;1.30;;;;;;;;;;5028187;28;20052;-64
2022/07/26 13:12:03;;;;;;;7.18;1.33;;;;;;;;;;5022090;28;20148;-64
2022/07/26 13:14:32;;;;;;;5.63;1.38;;;;;;;;;;5024309;28;20041;-65
2022/07/26 13:17:00;;;;;;;4.93;1.40;;;;;;;;;;5020194;28;20046;-65
2022/07/26 13:19:28;;;;;;;4.68;1.40;;;;;;;;;;5023758;28;20405;-64
2022/07/26 13:21:56;;;;;;;5.80;1.40;;;;;;;;;;5021573;28;20041;-66
2022/07/26 13:24:23;;;;;;;5.00;1.40;;;;;;;;;;5022812;28;20381;-64
2022/07/26 13:26:50;;;;;;;6.35;1.10;;;;;;;;;;5028940;28;20068;-64
2022/07/26 13:29:18;;;;;;;8.52;1.35;;;;;;;;;;5000492;28;20049;-65
2022/07/26 13:31:45;;;;;;;6.78;1.33;;;;;;;;;;5019212;28;20038;-65
2022/07/26 13:34:14;;;;;;;6.90;1.40;;;;;;;;;;5025624;28;20065;-64
2022/07/26 13:36:41;;;;;;;4.95;1.17;;;;;;;;;;5017782;28;20057;-65
2022/07/26 13:39:08;;;;;;;7.22;1.42;;;;;;;;;;5020036;28;20053;-64
2022/07/26 13:41:36;;;;;;;4.20;1.17;;;;;;;;;;5025126;28;20063;-65
2022/07/26 13:44:03;;;;;;;5.15;1.40;;;;;;;;;;5028440;28;20348;-65
2022/07/26 13:46:30;;;;;;;4.90;1.27;;;;;;;;;;5022370;28;20042;-65
2022/07/26 13:48:57;;;;;;;5.07;1.38;;;;;;;;;;5016125;28;20752;-65
2022/07/26 13:54:10;;;;;;;5.40;1.13;;;;;;;;;;5020829;28;20057;-64
2022/07/26 13:56:37;;;;;;;5.10;1.20;;;;;;;;;;5021449;28;20081;-65
2022/07/26 13:59:04;;;;;;;2.70;1.00;;;;;;;;;;5020940;28;20046;-64
2022/07/26 14:01:32;;;;;;;4.97;1.50;;;;;;;;;;5020836;28;20060;-64
2022/07/26 14:03:59;;;;;;;6.03;1.30;;;;;;;;;;5027724;28;20053;-64
2022/07/26 14:06:27;;;;;;;2.75;0.90;;;;;;;;;;5020402;28;20042;-64
2022/07/26 14:08:55;;;;;;;2.55;0.80;;;;;;;;;;5024815;28;20061;-64
2022/07/26 14:11:22;;;;;;;3.92;1.10;;;;;;;;;;5025912;28;20054;-65
2022/07/26 14:13:49;;;;;;;4.78;0.95;;;;;;;;;;5018944;28;20053;-64
2022/07/26 14:16:16;;;;;;;4.78;1.00;;;;;;;;;;5017704;28;20609;-64
2022/07/26 14:18:43;;;;;;;5.63;1.10;;;;;;;;;;5000843;28;20053;-64
2022/07/26 14:21:11;;;;;;;5.95;1.10;;;;;;;;;;4996433;28;20046;-64
2022/07/26 14:23:39;;;;;;;4.70;1.00;;;;;;;;;;5025818;28;20049;-65
2022/07/26 14:26:07;;;;;;;4.65;1.20;;;;;;;;;;5024175;28;20092;-64
2022/07/26 14:28:34;;;;;;;5.50;1.00;;;;;;;;;;5023312;28;20041;-64
2022/07/26 14:31:01;;;;;;;6.05;1.42;;;;;;;;;;5006588;28;20050;-64
2022/07/26 14:33:28;;;;;;;4.53;1.00;;;;;;;;;;5017922;28;20050;-64
2022/07/26 14:35:56;;;;;;;5.30;1.25;;;;;;;;;;5021846;28;20492;-64
2022/07/26 14:38:23;;;;;;;3.40;1.10;;;;;;;;;;5021870;28;20046;-64
2022/07/26 14:40:51;;;;;;;6.55;1.27;;;;;;;;;;5022404;28;20096;-65
2022/07/26 14:43:19;;;;;;;4.60;1.00;;;;;;;;;;5004383;28;20487;-64
2022/07/26 14:45:46;;;;;;;5.88;1.13;;;;;;;;;;5020970;28;20516;-64
2022/07/26 14:48:14;;;;;;;7.93;1.20;;;;;;;;;;5021993;28;20112;-65
2022/07/26 14:50:41;;;;;;;8.73;1.08;;;;;;;;;;5022691;28;20129;-65
2022/07/26 14:53:11;;;;;;;4.65;1.00;;;;;;;;;;5024008;28;20049;-64